createdAt,value
2019-01-04T00:02:13.714Z,36.80
2019-01-04T00:05:03.833Z,42.27
2019-01-04T00:07:32.781Z,40.90
2019-01-04T00:10:02.099Z,47.27
2019-01-04T00:12:31.168Z,41.40
2019-01-04T00:15:05.882Z,38.83
2019-01-04T00:17:35.350Z,38.63
2019-01-04T00:20:04.343Z,42.73
2019-01-04T00:22:33.317Z,41.30
2019-01-04T00:25:15.391Z,43.10
2019-01-04T00:27:44.304Z,40.87
2019-01-04T00:30:22.740Z,48.63
2019-01-04T00:32:51.636Z,48.20
2019-01-04T00:35:29.621Z,48.80
2019-01-04T00:37:59.790Z,42.10
2019-01-04T00:40:29.130Z,44.27
2019-01-04T00:46:08.956Z,44.43
2019-01-04T00:48:38.681Z,40.77
2019-01-04T00:51:07.632Z,46.70
2019-01-04T00:53:36.624Z,45.33
2019-01-04T00:56:24.623Z,44.00
2019-01-04T00:59:31.163Z,42.73
2019-01-04T01:02:08.286Z,42.10
2019-01-04T01:04:55.240Z,43.77
2019-01-04T01:07:41.903Z,43.30
2019-01-04T01:10:25.790Z,45.00
2019-01-04T01:13:12.827Z,47.73
2019-01-04T01:15:58.792Z,51.80
2019-01-04T01:18:37.494Z,43.77
2019-01-04T01:21:24.039Z,43.63
2019-01-04T01:24:11.100Z,47.73
2019-01-04T01:26:53.922Z,49.90
2019-01-04T01:29:40.606Z,47.77
2019-01-04T01:32:40.739Z,53.67
2019-01-04T01:35:18.134Z,56.80
2019-01-04T01:38:18.644Z,54.00
2019-01-04T01:41:13.282Z,50.80
2019-01-04T01:44:16.683Z,48.73
2019-01-04T01:46:47.982Z,49.23
2019-01-04T01:49:52.337Z,48.40
2019-01-04T01:52:23.796Z,43.30
2019-01-04T01:54:53.096Z,45.07
2019-01-04T01:57:21.995Z,50.17
2019-01-04T02:00:03.710Z,48.33
2019-01-04T02:02:33.046Z,46.13
2019-01-04T02:05:01.928Z,46.63
2019-01-04T02:07:40.258Z,44.37
2019-01-04T02:10:09.538Z,38.43
2019-01-04T02:12:38.468Z,43.70
2019-01-04T02:15:07.784Z,41.27
2019-01-04T02:17:36.702Z,47.30
2019-01-04T02:20:06.140Z,49.10
2019-01-04T02:22:35.337Z,40.70
2019-01-04T02:25:04.418Z,44.23
2019-01-04T02:27:33.333Z,42.67
2019-01-04T02:30:09.085Z,41.23
2019-01-04T02:32:37.987Z,42.13
2019-01-04T02:35:06.911Z,40.60
2019-01-04T02:37:36.097Z,39.70
2019-01-04T02:40:05.008Z,43.63
2019-01-04T02:42:34.245Z,44.43
2019-01-04T02:45:03.137Z,45.63
2019-01-04T02:47:32.817Z,50.73
2019-01-04T02:50:01.720Z,46.60
2019-01-04T02:52:30.716Z,47.33
2019-01-04T03:05:20.826Z,44.97
2019-01-04T03:07:50.086Z,45.03
2019-01-04T03:10:19.033Z,44.83
2019-01-04T03:12:47.920Z,37.90
2019-01-04T03:15:16.859Z,40.40
2019-01-04T03:17:51.636Z,43.97
2019-01-04T03:20:20.972Z,47.50
2019-01-04T03:22:50.276Z,42.57
2019-01-04T03:25:19.581Z,48.63
2019-01-04T03:27:48.519Z,42.63
2019-01-04T03:30:17.449Z,39.90
2019-01-04T03:32:46.799Z,39.77
2019-01-04T03:35:17.474Z,44.47
2019-01-04T03:37:46.785Z,45.33
2019-01-04T03:40:16.000Z,44.10
2019-01-04T03:43:03.766Z,43.90
2019-01-04T03:45:33.030Z,41.83
2019-01-04T03:48:02.199Z,42.97
2019-01-04T03:50:31.569Z,45.43
2019-01-04T03:53:00.826Z,41.60
2019-01-04T03:55:41.718Z,43.50
2019-01-04T03:58:10.962Z,42.83
2019-01-04T04:00:40.225Z,41.00
2019-01-04T04:03:09.111Z,43.33
2019-01-04T04:05:38.366Z,44.97
2019-01-04T04:08:33.642Z,41.17
2019-01-04T04:11:02.521Z,48.77
2019-01-04T04:13:41.029Z,41.33
2019-01-04T04:16:09.961Z,46.50
2019-01-04T04:18:41.053Z,39.53
2019-01-04T04:21:13.048Z,40.17
2019-01-04T04:23:41.963Z,43.80
2019-01-04T04:26:10.831Z,42.43
2019-01-04T04:28:39.753Z,55.57
2019-01-04T04:31:09.062Z,47.63
2019-01-04T04:33:38.011Z,47.60
2019-01-04T04:36:06.966Z,46.87
2019-01-04T04:38:55.199Z,47.43
2019-01-04T04:41:24.153Z,49.27
2019-01-04T04:44:01.268Z,45.63
2019-01-04T04:46:31.295Z,43.50
2019-01-04T04:49:00.198Z,46.77
2019-01-04T04:51:29.495Z,46.97
2019-01-04T04:54:04.805Z,44.37
2019-01-04T04:56:33.696Z,47.47
2019-01-04T04:59:02.644Z,44.37
2019-01-04T05:01:31.862Z,52.43
2019-01-04T05:04:01.075Z,46.77
2019-01-04T05:06:29.971Z,50.37
2019-01-04T05:08:59.360Z,45.87
2019-01-04T05:11:28.580Z,48.10
2019-01-04T05:13:57.463Z,51.03
2019-01-04T05:16:26.853Z,47.50
2019-01-04T05:18:56.061Z,54.13
2019-01-04T05:21:25.773Z,45.00
2019-01-04T05:23:54.709Z,44.87
2019-01-04T05:26:23.652Z,48.57
2019-01-04T05:28:52.947Z,45.67
2019-01-04T05:31:37.127Z,51.17
2019-01-04T05:34:06.005Z,51.50
2019-01-04T05:36:34.883Z,47.60
2019-01-04T05:39:05.122Z,43.73
2019-01-04T05:41:34.810Z,42.83
2019-01-04T05:44:03.735Z,47.20
2019-01-04T05:46:40.082Z,46.57
2019-01-04T05:49:09.006Z,46.13
2019-01-04T05:51:38.425Z,48.63
2019-01-04T05:54:07.329Z,43.80
2019-01-04T05:56:36.591Z,40.53
2019-01-04T06:02:28.506Z,40.70
2019-01-04T06:05:16.429Z,38.70
2019-01-04T06:07:45.332Z,42.23
2019-01-04T06:10:14.642Z,49.50
2019-01-04T06:12:46.712Z,53.03
2019-01-04T06:15:16.003Z,52.80
2019-01-04T06:17:44.876Z,49.53
2019-01-04T06:20:22.185Z,47.47
2019-01-04T06:22:57.010Z,47.53
2019-01-04T06:35:09.620Z,54.83
2019-01-04T06:37:38.515Z,54.20
2019-01-04T06:40:08.497Z,51.90
2019-01-04T06:42:38.206Z,47.87
2019-01-04T06:45:31.297Z,50.23
2019-01-04T06:48:36.341Z,48.40
2019-01-04T06:51:05.335Z,49.83
2019-01-04T06:53:34.236Z,51.70
2019-01-04T06:56:05.447Z,42.13
2019-01-04T06:58:45.675Z,50.50
2019-01-04T07:01:33.634Z,55.00
2019-01-04T07:04:02.960Z,58.97
2019-01-04T07:06:31.870Z,46.10
2019-01-04T07:09:01.255Z,53.47
2019-01-04T07:11:30.165Z,53.77
2019-01-04T07:13:59.095Z,51.97
2019-01-04T07:16:28.063Z,55.97
2019-01-04T07:19:03.103Z,49.77
2019-01-04T07:21:32.136Z,49.73
2019-01-04T07:24:01.405Z,48.70
2019-01-04T07:26:30.350Z,53.27
2019-01-04T07:32:22.658Z,51.70
2019-01-04T07:34:51.983Z,64.70
2019-01-04T07:37:20.941Z,69.93
2019-01-04T07:39:50.266Z,53.13
2019-01-04T07:42:19.133Z,57.03
2019-01-04T07:44:48.063Z,52.70
2019-01-04T07:47:24.932Z,59.83
2019-01-04T07:49:54.255Z,50.00
2019-01-04T07:52:23.151Z,50.10
2019-01-04T07:54:52.284Z,54.63
2019-01-04T07:57:21.188Z,57.90
2019-01-04T07:59:50.112Z,62.03
2019-01-04T08:02:39.014Z,74.30
2019-01-04T08:05:09.464Z,77.57
2019-01-04T08:07:38.848Z,78.53
2019-01-04T08:10:07.891Z,99.40
2019-01-04T08:12:36.798Z,82.70
2019-01-04T08:15:06.036Z,65.70
2019-01-04T08:17:35.009Z,61.50
2019-01-04T08:20:05.265Z,55.83
2019-01-04T08:22:34.219Z,57.07
2019-01-04T08:25:03.391Z,48.93
2019-01-04T08:27:32.276Z,56.40
2019-01-04T08:30:01.168Z,44.97
2019-01-04T08:32:30.125Z,41.57
2019-01-04T08:34:59.043Z,56.70
2019-01-04T08:37:27.930Z,42.30
2019-01-04T08:40:15.914Z,40.77
2019-01-04T08:42:44.816Z,40.37
2019-01-04T08:45:17.422Z,48.00
2019-01-04T08:47:46.650Z,40.23
2019-01-04T08:50:17.448Z,42.50
2019-01-04T08:52:46.445Z,47.20
2019-01-04T08:55:23.436Z,40.73
2019-01-04T08:57:52.363Z,47.50
2019-01-04T09:00:21.256Z,46.23
2019-01-04T09:02:50.141Z,41.87
2019-01-04T09:05:19.470Z,36.13
2019-01-04T09:07:48.816Z,35.23
2019-01-04T09:10:18.554Z,37.37
2019-01-04T09:12:55.619Z,32.43
2019-01-04T09:15:24.886Z,37.20
2019-01-04T09:17:54.148Z,35.50
2019-01-04T09:20:23.390Z,33.50
2019-01-04T09:23:13.088Z,34.37
2019-01-04T09:26:02.674Z,31.20
2019-01-04T09:28:31.596Z,32.63
2019-01-04T09:31:00.873Z,32.53
2019-01-04T09:33:35.772Z,37.60
2019-01-04T09:36:04.670Z,35.40
2019-01-04T09:38:33.591Z,34.87
2019-01-04T09:41:26.652Z,34.80
2019-01-04T09:43:55.916Z,33.83
2019-01-04T09:46:25.288Z,34.87
2019-01-04T09:48:54.503Z,38.33
2019-01-04T09:51:45.607Z,32.40
2019-01-04T09:54:14.911Z,36.17
2019-01-04T09:56:43.849Z,31.67
2019-01-04T09:59:13.160Z,29.83
2019-01-04T10:01:53.842Z,28.87
2019-01-04T10:04:22.838Z,27.63
2019-01-04T10:07:04.066Z,31.20
2019-01-04T10:09:33.006Z,30.40
2019-01-04T10:12:02.284Z,34.13
2019-01-04T10:14:31.216Z,24.93
2019-01-04T10:17:06.556Z,31.03
2019-01-04T10:19:35.537Z,26.13
2019-01-04T10:22:04.403Z,32.67
2019-01-04T10:24:33.308Z,25.43
2019-01-04T10:27:02.649Z,30.63
2019-01-04T10:29:31.560Z,25.80
2019-01-04T10:32:09.774Z,27.00
2019-01-04T10:34:38.736Z,25.07
2019-01-04T10:37:26.147Z,23.60
2019-01-04T10:39:55.479Z,26.20
2019-01-04T10:42:24.425Z,23.47
2019-01-04T10:44:53.335Z,24.40
2019-01-04T10:47:22.263Z,24.03
2019-01-04T10:49:51.961Z,24.50
2019-01-04T10:52:21.299Z,35.40
2019-01-04T10:54:50.563Z,27.30
2019-01-04T10:57:19.881Z,29.37
2019-01-04T11:00:19.239Z,28.20
2019-01-04T11:02:48.137Z,26.77
2019-01-04T11:05:17.091Z,30.30
2019-01-04T11:07:55.764Z,30.33
2019-01-04T11:10:24.678Z,26.77
2019-01-04T11:12:54.056Z,33.47
2019-01-04T11:15:42.002Z,27.47
2019-01-04T11:18:11.451Z,24.40
2019-01-04T11:20:41.713Z,32.00
2019-01-04T11:23:30.003Z,29.10
2019-01-04T11:26:07.794Z,27.40
2019-01-04T11:28:58.725Z,28.50
2019-01-04T11:31:46.623Z,29.13
2019-01-04T11:34:21.496Z,22.53
2019-01-04T11:37:25.563Z,27.43
2019-01-04T11:40:02.616Z,28.10
2019-01-04T11:42:53.411Z,28.07
2019-01-04T11:45:57.246Z,24.23
2019-01-04T11:48:33.344Z,23.07
2019-01-04T11:51:13.899Z,19.97
2019-01-04T11:53:42.964Z,23.27
2019-01-04T11:56:11.932Z,21.57
2019-01-04T11:58:40.839Z,18.33
2019-01-04T12:04:31.909Z,21.07
2019-01-04T12:07:03.561Z,24.53
2019-01-04T12:12:42.251Z,25.23
2019-01-04T12:15:11.143Z,22.03
2019-01-04T12:17:40.387Z,30.80
2019-01-04T12:20:09.317Z,23.17
2019-01-04T12:22:38.213Z,25.13
2019-01-04T12:25:07.162Z,24.53
2019-01-04T12:27:48.460Z,23.73
2019-01-04T12:30:17.822Z,24.40
2019-01-04T12:32:46.747Z,25.97
2019-01-04T12:38:29.021Z,23.87
2019-01-04T12:40:58.447Z,21.10
2019-01-04T12:43:27.359Z,24.47
2019-01-04T12:45:57.983Z,27.80
2019-01-04T12:48:54.814Z,25.27
2019-01-04T12:51:24.219Z,29.03
2019-01-04T12:53:53.525Z,21.70
2019-01-04T12:56:22.424Z,22.77
2019-01-04T12:58:51.366Z,21.33
2019-01-04T13:01:24.531Z,24.03
2019-01-04T13:03:55.540Z,25.27
2019-01-04T13:06:27.562Z,20.00
2019-01-04T13:08:56.885Z,27.20
2019-01-04T13:11:26.275Z,28.20
2019-01-04T13:13:55.358Z,21.63
2019-01-04T13:16:24.337Z,21.03
2019-01-04T13:18:53.596Z,20.70
2019-01-04T13:21:22.623Z,25.17
2019-01-04T13:23:51.930Z,26.90
2019-01-04T13:26:21.276Z,24.40
2019-01-04T13:28:50.763Z,19.10
2019-01-04T13:31:19.771Z,22.90
2019-01-04T13:33:49.117Z,22.60
2019-01-04T13:36:18.384Z,25.87
2019-01-04T13:38:47.304Z,21.93
2019-01-04T13:41:26.168Z,20.97
2019-01-04T13:43:55.370Z,23.63
2019-01-04T13:46:24.688Z,22.10
2019-01-04T13:49:02.891Z,24.60
2019-01-04T13:51:31.783Z,73.77
2019-01-04T13:54:01.073Z,77.40
2019-01-04T13:56:30.003Z,53.30
2019-01-04T13:58:59.950Z,26.53
2019-01-04T14:01:29.222Z,25.07
2019-01-04T14:04:13.756Z,25.40
2019-01-04T14:06:55.252Z,25.83
2019-01-04T14:09:29.072Z,23.67
2019-01-04T14:11:57.998Z,19.40
2019-01-04T14:14:27.632Z,19.90
2019-01-04T14:16:56.862Z,16.07
2019-01-04T14:19:42.041Z,15.80
2019-01-04T14:22:10.951Z,20.67
2019-01-04T14:24:40.222Z,21.60
2019-01-04T14:27:09.130Z,16.87
2019-01-04T14:29:38.450Z,19.10
2019-01-04T14:32:07.373Z,20.10
2019-01-04T14:34:36.259Z,16.30
2019-01-04T14:37:05.887Z,22.57
2019-01-04T14:39:40.908Z,21.17
2019-01-04T14:42:09.823Z,23.17
2019-01-04T14:44:38.726Z,21.80
2019-01-04T14:47:07.656Z,23.63
2019-01-04T14:49:36.576Z,19.30
2019-01-04T14:52:05.909Z,19.50
2019-01-04T14:54:34.793Z,16.57
2019-01-04T14:57:03.746Z,24.80
2019-01-04T14:59:32.694Z,22.13
2019-01-04T15:02:01.592Z,18.70
2019-01-04T15:04:30.533Z,19.80
2019-01-04T15:06:59.796Z,21.20
2019-01-04T15:09:29.844Z,21.10
2019-01-04T15:11:59.111Z,20.00
2019-01-04T15:14:28.007Z,21.63
2019-01-04T15:16:56.937Z,21.03
2019-01-04T15:19:25.812Z,25.23
2019-01-04T15:21:55.148Z,19.33
2019-01-04T15:24:24.088Z,24.50
2019-01-04T15:26:53.310Z,19.70
2019-01-04T15:29:40.696Z,19.03
2019-01-04T15:32:09.600Z,20.23
2019-01-04T15:34:38.518Z,30.70
2019-01-04T15:37:07.405Z,24.63
2019-01-04T15:39:36.330Z,29.97
2019-01-04T15:42:05.227Z,20.60
2019-01-04T15:44:34.145Z,19.00
2019-01-04T15:47:03.050Z,17.40
2019-01-04T15:49:31.926Z,21.00
2019-01-04T15:52:00.759Z,22.47
2019-01-04T15:54:29.661Z,24.23
2019-01-04T15:56:58.577Z,20.57
2019-01-04T15:59:45.740Z,21.57
2019-01-04T16:02:15.112Z,22.00
2019-01-04T16:04:44.001Z,25.47
2019-01-04T16:07:13.311Z,20.00
2019-01-04T16:09:42.602Z,18.50
2019-01-04T16:12:12.248Z,19.27
2019-01-04T16:14:41.143Z,18.70
2019-01-04T16:17:12.184Z,19.40
2019-01-04T16:19:41.076Z,23.80
2019-01-04T16:22:16.639Z,26.50
2019-01-04T16:24:45.590Z,19.87
2019-01-04T16:27:14.489Z,22.47
2019-01-04T16:29:43.794Z,20.63
2019-01-04T16:32:13.060Z,21.13
2019-01-04T16:34:41.963Z,22.60
2019-01-04T16:37:30.071Z,18.93
2019-01-04T16:39:58.952Z,19.13
2019-01-04T16:42:27.917Z,20.87
2019-01-04T16:44:56.893Z,21.70
2019-01-04T16:47:29.942Z,17.63
2019-01-04T16:49:59.338Z,21.37
2019-01-04T16:52:28.255Z,19.87
2019-01-04T16:54:57.602Z,19.60
2019-01-04T16:57:26.490Z,21.57
2019-01-04T16:59:56.227Z,24.10
2019-01-04T17:02:25.079Z,18.73
2019-01-04T17:04:54.023Z,33.50
2019-01-04T17:07:23.362Z,19.90
2019-01-04T17:09:52.336Z,17.83
2019-01-04T17:12:21.591Z,19.30
2019-01-04T17:14:50.497Z,22.17
2019-01-04T17:17:19.758Z,16.50
2019-01-04T17:19:48.684Z,31.80
2019-01-04T17:22:17.637Z,25.43
2019-01-04T17:24:46.590Z,33.90
2019-01-04T17:27:15.503Z,27.47
2019-01-04T17:29:45.668Z,18.37
2019-01-04T17:32:14.597Z,25.03
2019-01-04T17:34:43.666Z,20.53
2019-01-04T17:37:12.539Z,19.43
2019-01-04T17:39:41.494Z,18.23
2019-01-04T17:42:10.408Z,18.67
2019-01-04T17:44:39.708Z,17.23
2019-01-04T17:47:08.623Z,17.40
2019-01-04T17:49:37.949Z,20.07
2019-01-04T17:52:07.644Z,18.20
2019-01-04T17:54:36.562Z,21.43
2019-01-04T17:57:05.466Z,19.30
2019-01-04T17:59:34.882Z,19.60
2019-01-04T18:02:03.889Z,20.70
2019-01-04T18:04:32.747Z,17.47
2019-01-04T18:07:01.684Z,19.10
2019-01-04T18:09:30.547Z,19.83
2019-01-04T18:12:29.641Z,17.90
2019-01-04T18:15:17.533Z,17.70
2019-01-04T18:17:46.444Z,19.57
2019-01-04T18:20:15.428Z,17.73
2019-01-04T18:22:46.449Z,31.23
2019-01-04T18:25:15.399Z,25.73
2019-01-04T18:27:44.276Z,13.37
2019-01-04T18:30:13.193Z,25.23
2019-01-04T18:32:42.430Z,26.93
2019-01-04T18:35:11.380Z,24.00
2019-01-04T18:37:52.486Z,23.30
2019-01-04T18:40:21.534Z,22.37
2019-01-04T18:42:50.530Z,28.20
2019-01-04T18:45:19.464Z,27.17
2019-01-04T18:47:48.362Z,23.93
2019-01-04T18:50:23.781Z,29.70
2019-01-04T18:52:52.702Z,30.40
2019-01-04T18:55:21.718Z,29.27
2019-01-04T18:57:56.869Z,25.33
2019-01-04T19:00:26.211Z,24.00
2019-01-04T19:02:55.134Z,20.43
2019-01-04T19:05:26.193Z,23.50
2019-01-04T19:07:55.121Z,17.73
2019-01-04T19:10:30.172Z,18.23
2019-01-04T19:13:03.282Z,15.67
2019-01-04T19:15:40.723Z,19.00
2019-01-04T19:18:10.824Z,23.30
2019-01-04T19:20:40.151Z,24.20
2019-01-04T19:23:11.092Z,21.33
2019-01-04T19:25:40.025Z,21.20
2019-01-04T19:28:08.956Z,20.80
2019-01-04T19:30:48.635Z,20.50
2019-01-04T19:33:17.581Z,20.93
2019-01-04T19:35:46.641Z,20.67
2019-01-04T19:38:36.446Z,20.53
2019-01-04T19:41:05.519Z,21.73
2019-01-04T19:44:03.716Z,24.40
2019-01-04T19:46:33.741Z,22.20
2019-01-04T19:49:02.664Z,21.23
2019-01-04T19:51:37.542Z,26.97
2019-01-04T19:54:06.469Z,27.30
2019-01-04T19:56:38.742Z,28.93
2019-01-04T19:59:07.673Z,28.80
2019-01-04T20:01:36.600Z,28.17
2019-01-04T20:04:05.541Z,22.50
2019-01-04T20:07:36.632Z,26.90
2019-01-04T20:10:41.606Z,25.50
2019-01-04T20:14:00.556Z,25.73
2019-01-04T20:16:59.635Z,21.87
2019-01-04T20:20:00.008Z,22.77
2019-01-04T20:22:46.669Z,20.10
2019-01-04T20:25:33.699Z,24.53
2019-01-04T20:28:30.741Z,25.30
2019-01-04T20:31:52.333Z,26.33
2019-01-04T20:34:38.197Z,23.70
2019-01-04T20:37:24.819Z,21.20
2019-01-04T20:40:43.189Z,26.70
2019-01-04T20:43:49.347Z,23.60
2019-01-04T20:46:40.147Z,21.50
2019-01-04T20:49:26.858Z,24.43
2019-01-04T20:52:20.125Z,22.03
2019-01-04T20:55:29.840Z,19.07
2019-01-04T20:58:16.735Z,21.33
2019-01-04T21:01:13.510Z,26.37
2019-01-04T21:04:10.867Z,22.83
2019-01-04T21:07:01.921Z,24.33
2019-01-04T21:10:01.579Z,26.43
2019-01-04T21:12:48.585Z,24.40
2019-01-04T21:15:43.578Z,28.40
2019-01-04T21:18:31.967Z,33.13
2019-01-04T21:21:27.939Z,29.00
2019-01-04T21:24:25.107Z,28.93
2019-01-04T21:27:17.847Z,33.90
2019-01-04T21:30:04.917Z,34.90
2019-01-04T21:33:02.154Z,35.77
2019-01-04T21:36:16.231Z,33.60
2019-01-04T21:39:15.142Z,26.57
2019-01-04T21:42:31.948Z,28.37
2019-01-04T21:45:33.604Z,25.30
2019-01-04T21:48:43.046Z,33.87
2019-01-04T21:51:40.309Z,35.37
2019-01-04T21:54:31.059Z,29.10
2019-01-04T21:57:43.198Z,28.67
2019-01-04T22:00:30.036Z,32.53
2019-01-04T22:03:20.918Z,32.00
2019-01-04T22:06:26.858Z,30.00
2019-01-04T22:09:35.069Z,31.23
2019-01-04T22:12:24.143Z,39.07
2019-01-04T22:15:27.536Z,33.70
2019-01-04T22:18:13.390Z,26.77
2019-01-04T22:21:00.772Z,27.13
2019-01-04T22:24:01.576Z,27.37
2019-01-04T22:26:49.278Z,26.27
2019-01-04T22:29:46.452Z,24.40
2019-01-04T22:32:34.782Z,27.57
2019-01-04T22:35:23.034Z,25.17
2019-01-04T22:38:20.294Z,28.20
2019-01-04T22:41:02.860Z,27.17
2019-01-04T22:43:53.861Z,26.27
2019-01-04T22:46:51.052Z,30.80
2019-01-04T22:49:39.025Z,27.20
2019-01-04T22:52:37.394Z,29.57
2019-01-04T22:55:40.738Z,27.13
2019-01-04T22:58:28.705Z,26.93
2019-01-04T23:04:40.345Z,25.17
2019-01-04T23:07:22.156Z,24.10
2019-01-04T23:10:16.743Z,26.07
2019-01-04T23:13:10.419Z,24.13
2019-01-04T23:15:58.048Z,28.20
2019-01-04T23:18:46.017Z,27.23
2019-01-04T23:21:51.957Z,23.17
2019-01-04T23:24:49.062Z,25.30
2019-01-04T23:27:35.293Z,22.20
2019-01-04T23:30:22.673Z,21.40
2019-01-04T23:33:08.972Z,23.50
2019-01-04T23:36:03.376Z,20.37
2019-01-04T23:38:59.127Z,23.27
2019-01-04T23:41:50.180Z,20.97
2019-01-04T23:44:36.766Z,22.07
2019-01-04T23:47:25.086Z,22.10
2019-01-04T23:50:15.599Z,22.23
2019-01-04T23:53:15.843Z,22.27
2019-01-04T23:56:10.346Z,24.97
2019-01-04T23:58:57.187Z,23.13
